Time;durP1;ratioP1;P1;durP2;ratioP2;P2;SDS_P1;SDS_P2;PMS_P1;PMS_P2;Temp;Humidity;BMP_temperature;BMP_pressure;BME280_temperature;BME280_humidity;BME280_pressure;Samples;Min_cycle;Max_cycle;Signal;HPM_P1;HPM_P2
2021/12/08 00:00:53;;;;;;;44.42;42.13;;;;;;;20.36;41.51;98967.44;4958663;28;20046;-72
2021/12/08 00:03:20;;;;;;;43.35;41.25;;;;;;;20.36;41.30;98967.44;4958756;29;20055;-71
2021/12/08 00:05:46;;;;;;;43.00;40.70;;;;;;;20.35;41.35;98970.53;4958956;29;20423;-72
2021/12/08 00:08:14;;;;;;;44.50;42.30;;;;;;;20.34;41.40;98969.75;4958395;29;20031;-71
2021/12/08 00:13:27;;;;;;;44.20;41.95;;;;;;;20.32;41.45;98963.81;4924683;29;20122;-71
2021/12/08 00:16:07;;;;;;;44.13;41.78;;;;;;;20.30;41.31;98955.13;4958665;28;20039;-71
2021/12/08 00:18:34;;;;;;;43.97;41.88;;;;;;;20.29;41.21;98950.81;4958919;29;20066;-71
2021/12/08 00:21:03;;;;;;;46.97;44.67;;;;;;;20.27;41.41;98942.91;4958105;29;20046;-71
2021/12/08 00:23:29;;;;;;;44.33;41.90;;;;;;;20.26;41.39;98933.13;4958327;29;20032;-72
2021/12/08 00:25:56;;;;;;;44.00;41.90;;;;;;;20.25;41.45;98941.69;4958614;29;20122;-71
2021/12/08 00:28:24;;;;;;;44.08;41.85;;;;;;;20.25;41.37;98944.41;4957044;28;20047;-72
2021/12/08 00:30:53;;;;;;;44.83;42.55;;;;;;;20.25;41.22;98955.38;4957794;29;20063;-72
2021/12/08 00:33:20;;;;;;;43.85;41.72;;;;;;;20.24;41.19;98960.09;4957623;29;20073;-72
2021/12/08 00:35:47;;;;;;;43.75;41.45;;;;;;;20.23;41.33;98963.16;4957764;28;20035;-71
2021/12/08 00:38:13;;;;;;;43.17;41.05;;;;;;;20.22;41.24;98970.59;4957674;28;20063;-71
2021/12/08 00:40:39;;;;;;;43.80;41.60;;;;;;;20.21;41.37;98974.50;4958157;28;20456;-71
2021/12/08 00:43:06;;;;;;;46.00;43.70;;;;;;;20.20;41.33;98978.38;4955962;28;20041;-72
2021/12/08 00:45:33;;;;;;;43.58;41.30;;;;;;;20.20;41.46;98988.53;4956215;29;20054;-71
2021/12/08 00:47:59;;;;;;;43.15;41.05;;;;;;;20.19;41.16;98982.25;4957685;29;20066;-76
2021/12/08 00:50:27;;;;;;;43.38;41.20;;;;;;;20.19;41.29;98986.97;4957694;29;20035;-71
2021/12/08 00:52:54;;;;;;;43.15;40.90;;;;;;;20.17;41.31;98986.50;4957435;29;20136;-72
2021/12/08 00:55:20;;;;;;;44.38;42.08;;;;;;;20.15;41.33;98997.81;4957136;28;20067;-71
2021/12/08 00:57:46;;;;;;;43.65;41.55;;;;;;;20.15;41.11;99000.56;4955028;28;20035;-71
2021/12/08 01:00:16;;;;;;;43.28;41.17;;;;;;;20.14;41.29;99001.72;4957230;29;20043;-71
2021/12/08 01:02:42;;;;;;;41.33;39.35;;;;;;;20.15;41.49;98999.75;4957645;29;20082;-72
2021/12/08 01:05:11;;;;;;;42.03;39.95;;;;;;;20.14;41.25;99017.34;4957025;29;20054;-71
2021/12/08 01:07:37;;;;;;;41.13;39.13;;;;;;;20.12;41.46;99020.44;4957126;28;20527;-71
2021/12/08 01:10:05;;;;;;;42.28;40.28;;;;;;;20.12;41.42;99025.94;4957482;29;20047;-71
2021/12/08 01:12:31;;;;;;;44.55;42.10;;;;;;;20.12;41.19;99027.88;4957586;28;20047;-71
2021/12/08 01:14:56;;;;;;;43.33;41.25;;;;;;;20.11;41.47;99032.56;4957206;29;20126;-72
2021/12/08 01:17:21;;;;;;;42.78;40.78;;;;;;;20.10;41.33;99039.97;4956184;29;20386;-71
2021/12/08 01:19:47;;;;;;;42.35;40.25;;;;;;;20.10;41.24;99028.22;4940552;29;20035;-71
2021/12/08 01:22:12;;;;;;;43.42;41.30;;;;;;;20.08;41.15;99020.34;4957153;29;20169;-71
2021/12/08 01:24:38;;;;;;;42.85;40.85;;;;;;;20.07;41.12;99016.00;4956804;28;20058;-71
2021/12/08 01:27:03;;;;;;;42.30;40.28;;;;;;;20.08;41.19;99019.53;4957281;29;20110;-72
2021/12/08 01:29:29;;;;;;;43.90;41.80;;;;;;;20.07;41.29;99017.94;4957111;28;20035;-72
2021/12/08 01:31:54;;;;;;;41.90;39.90;;;;;;;20.06;41.20;99010.88;4956896;29;20464;-71
2021/12/08 01:34:20;;;;;;;43.08;40.97;;;;;;;20.06;41.41;99022.63;4957267;28;20067;-72
2021/12/08 01:36:46;;;;;;;43.75;41.65;;;;;;;20.05;41.21;99015.53;4956418;29;20047;-72
2021/12/08 01:39:11;;;;;;;44.38;42.17;;;;;;;20.05;41.42;99014.75;4955171;29;20046;-71
2021/12/08 01:41:37;;;;;;;41.85;39.85;;;;;;;20.04;41.25;99015.91;4956493;28;20027;-74
2021/12/08 01:46:47;;;;;;;42.97;40.88;;;;;;;20.03;41.36;99041.69;4956387;29;20046;-71
2021/12/08 01:49:14;;;;;;;43.20;41.10;;;;;;;20.02;41.47;99043.66;4956242;29;20039;-71
2021/12/08 01:51:39;;;;;;;42.30;40.22;;;;;;;20.01;41.36;99050.28;4956037;28;20444;-71
2021/12/08 01:54:06;;;;;;;42.30;40.28;;;;;;;20.02;41.61;99056.56;4955910;29;20035;-71
2021/12/08 01:56:34;;;;;;;42.85;40.85;;;;;;;20.00;41.51;99059.63;4956490;28;20114;-72
2021/12/08 01:59:02;;;;;;;42.30;40.22;;;;;;;20.00;41.26;99059.63;4956217;29;20143;-71
2021/12/08 02:01:29;;;;;;;41.60;39.63;;;;;;;20.00;41.31;99058.84;4956177;29;20063;-71
2021/12/08 02:03:55;;;;;;;41.28;39.35;;;;;;;19.99;41.38;99057.25;4956427;28;20039;-72
2021/12/08 02:06:22;;;;;;;43.50;41.40;;;;;;;19.99;41.07;99065.47;4955558;29;20093;-72
2021/12/08 02:08:51;;;;;;;42.42;40.38;;;;;;;19.98;41.51;99070.19;4955341;28;20087;-71
2021/12/08 02:11:17;;;;;;;43.80;41.50;;;;;;;19.97;41.52;99074.03;4955888;28;20066;-71
2021/12/08 02:13:43;;;;;;;42.40;40.30;;;;;;;19.98;41.42;99069.34;4956014;28;20046;-71
2021/12/08 02:16:14;;;;;;;42.25;40.25;;;;;;;19.97;41.63;99073.25;4938631;29;20031;-75
2021/12/08 02:18:41;;;;;;;42.45;40.35;;;;;;;19.95;41.77;99073.59;4955097;29;20058;-72
2021/12/08 02:21:39;;;;;;;42.05;40.05;;;;;;;19.94;41.58;99082.97;4955433;29;20063;-79
2021/12/08 02:24:11;;;;;;;41.80;39.80;;;;;;;19.95;41.67;99086.50;4955616;29;20054;-79
2021/12/08 02:26:39;;;;;;;43.65;41.42;;;;;;;19.94;41.60;99087.66;4955626;29;20035;-79
2021/12/08 02:29:10;;;;;;;42.42;40.28;;;;;;;19.93;41.54;99084.09;4938943;29;20035;-79
2021/12/08 02:48:05;;;;;;;42.03;40.03;;;;;;;19.89;41.67;99105.91;4954438;29;20049;-79
2021/12/08 02:50:35;;;;;;;44.72;42.60;;;;;;;19.88;41.41;99104.34;4955316;29;20027;-78
2021/12/08 02:53:02;;;;;;;42.92;40.88;;;;;;;19.88;41.70;99106.25;4955432;29;20109;-79
2021/12/08 02:55:31;;;;;;;43.60;41.40;;;;;;;19.87;41.64;99110.94;4955137;28;20562;-79
2021/12/08 02:57:59;;;;;;;42.65;40.65;;;;;;;19.87;41.42;99104.66;4954323;29;20024;-79
2021/12/08 03:00:27;;;;;;;44.40;42.20;;;;;;;19.86;41.70;99103.88;4955475;29;20518;-80
2021/12/08 03:02:59;;;;;;;43.45;41.42;;;;;;;19.86;41.84;99106.59;4955105;28;20079;-79
2021/12/08 03:05:26;;;;;;;43.75;41.65;;;;;;;19.86;41.76;99106.59;4955148;29;20027;-79
2021/12/08 03:07:51;;;;;;;43.00;40.90;;;;;;;19.85;41.67;99110.47;4955289;29;20035;-80
2021/12/08 03:10:21;;;;;;;42.58;40.53;;;;;;;19.84;41.73;99106.16;4938614;29;20032;-80
2021/12/08 03:12:47;;;;;;;42.95;40.95;;;;;;;19.85;41.51;99104.19;4955322;29;20035;-78
2021/12/08 03:15:14;;;;;;;41.83;39.83;;;;;;;19.84;41.83;99108.09;4953852;29;20039;-79
2021/12/08 03:17:40;;;;;;;42.38;40.38;;;;;;;19.84;41.52;99124.53;4955061;29;20075;-79
2021/12/08 03:20:09;;;;;;;42.97;40.83;;;;;;;19.83;41.67;99118.25;4938858;29;20050;-79
2021/12/08 03:22:40;;;;;;;43.15;41.05;;;;;;;19.82;41.67;99116.66;4958787;28;20398;-80
2021/12/08 03:25:09;;;;;;;43.17;40.75;;;;;;;19.83;41.66;99125.66;4958834;29;20027;-80
2021/12/08 03:27:39;;;;;;;;;;;;;;;19.80;41.69;99121.66;4942361;29;20039;-80
2021/12/08 03:30:19;;;;;;;40.92;39.03;;;;;;;19.79;41.46;99128.31;4957534;28;19914;-80
2021/12/08 03:32:45;;;;;;;43.00;40.90;;;;;;;19.79;41.59;99128.31;4943856;29;20383;-80
2021/12/08 03:35:16;;;;;;;43.72;41.63;;;;;;;19.78;41.47;99121.25;4941335;29;20467;-80
2021/12/08 03:37:46;;;;;;;42.95;40.85;;;;;;;19.78;41.64;99123.97;4957407;29;20480;-79
2021/12/08 03:40:15;;;;;;;43.20;41.10;;;;;;;19.79;41.56;99111.06;4959193;29;20126;-80
2021/12/08 03:42:42;;;;;;;43.33;41.20;;;;;;;19.78;41.60;99112.19;4958224;29;20035;-80
2021/12/08 03:45:13;;;;;;;45.15;42.95;;;;;;;19.78;41.60;99115.75;4941342;29;20444;-81
2021/12/08 03:47:42;;;;;;;44.33;42.22;;;;;;;19.77;41.64;99111.41;4958960;29;20150;-79
2021/12/08 03:50:12;;;;;;;42.90;40.88;;;;;;;19.77;41.68;99116.88;4957254;29;20031;-79
2021/12/08 03:52:38;;;;;;;46.35;44.05;;;;;;;19.76;41.67;99120.78;4957072;28;20523;-78
2021/12/08 03:55:06;;;;;;;43.38;41.33;;;;;;;19.76;41.76;99131.75;4958347;29;20051;-81
2021/12/08 03:57:33;;;;;;;45.60;43.22;;;;;;;19.76;41.59;99130.94;4956954;29;20467;-81
2021/12/08 03:59:59;;;;;;;44.55;42.45;;;;;;;19.76;41.51;99137.22;4957318;29;20110;-81
2021/12/08 04:02:24;;;;;;;45.00;42.63;;;;;;;19.75;41.70;99138.34;4941150;29;20469;-80
2021/12/08 04:04:51;;;;;;;45.13;43.03;;;;;;;19.75;41.64;99141.06;4956920;29;20027;-79
2021/12/08 04:07:18;;;;;;;45.15;42.95;;;;;;;19.75;41.46;99143.03;4958534;28;20082;-80
2021/12/08 04:09:47;;;;;;;47.78;45.47;;;;;;;19.74;41.53;99141.44;4958039;29;20038;-80
2021/12/08 04:12:18;;;;;;;45.55;43.28;;;;;;;19.75;41.38;99143.03;4957991;29;20042;-80
2021/12/08 04:14:55;;;;;;;45.05;42.95;;;;;;;19.74;41.58;99141.44;4940864;29;20028;-80
2021/12/08 04:17:27;;;;;;;47.08;44.70;;;;;;;19.73;41.56;99143.38;4956511;29;20090;-80
2021/12/08 04:19:54;;;;;;;45.63;43.45;;;;;;;19.71;41.66;99153.88;4958789;29;20102;-80
2021/12/08 04:22:48;;;;;;;46.40;44.20;;;;;;;19.72;41.47;99154.69;4957591;29;20365;-80
2021/12/08 04:25:19;;;;;;;46.85;44.65;;;;;;;19.71;41.68;99162.09;4955527;29;20128;-79
2021/12/08 04:27:48;;;;;;;47.35;44.78;;;;;;;19.70;41.46;99163.22;4958001;29;20027;-80
2021/12/08 04:30:21;;;;;;;47.13;44.78;;;;;;;19.70;41.34;99154.22;4957666;28;20136;-80
2021/12/08 04:32:47;;;;;;;47.35;44.95;;;;;;;19.69;41.62;99156.16;4958245;29;20042;-79
2021/12/08 04:35:15;;;;;;;47.35;44.95;;;;;;;19.69;41.67;99158.09;4958185;28;20038;-79
2021/12/08 04:37:46;;;;;;;48.53;46.13;;;;;;;19.68;41.32;99146.34;4940900;29;20063;-79
2021/12/08 04:40:44;;;;;;;47.03;44.72;;;;;;;19.66;41.29;99149.41;4957696;29;20035;-79
2021/12/08 04:43:29;;;;;;;45.38;43.10;;;;;;;19.67;41.42;99164.72;4955945;29;20027;-79
2021/12/08 04:51:36;;;;;;;46.70;44.40;;;;;;;19.65;41.20;99183.41;4957618;29;20035;-78
2021/12/08 05:10:21;;;;;;;48.85;46.47;;;;;;;19.60;41.29;99191.84;4956114;29;20039;-80
2021/12/08 05:12:49;;;;;;;50.83;48.25;;;;;;;19.61;41.52;99189.91;4956520;29;20023;-79
2021/12/08 05:15:21;;;;;;;45.50;43.40;;;;;;;19.60;41.51;99196.50;4954735;29;20024;-79
2021/12/08 05:18:10;;;;;;;47.65;45.33;;;;;;;19.59;41.25;99186.72;4955111;29;20054;-80
2021/12/08 05:21:02;;;;;;;48.58;45.97;;;;;;;19.59;41.17;99189.44;4955858;29;20027;-80
2021/12/08 05:23:50;;;;;;;47.03;44.83;;;;;;;19.58;41.44;99183.19;4955183;29;20357;-79
2021/12/08 05:26:24;;;;;;;48.10;45.72;;;;;;;19.58;41.46;99190.56;4954964;29;20042;-79
2021/12/08 05:28:51;;;;;;;45.90;43.78;;;;;;;19.57;41.24;99183.50;4955628;29;20023;-79
2021/12/08 05:31:25;;;;;;;47.50;45.30;;;;;;;19.56;41.23;99190.13;4955768;29;20035;-80
2021/12/08 05:33:52;;;;;;;48.22;45.85;;;;;;;19.57;41.21;99189.78;4955403;29;20035;-80
2021/12/08 05:36:18;;;;;;;47.15;44.85;;;;;;;19.56;41.28;99190.94;4955631;29;20042;-80
2021/12/08 05:38:44;;;;;;;48.75;46.25;;;;;;;19.55;41.16;99197.53;4938472;29;20035;-79
2021/12/08 05:41:16;;;;;;;48.05;45.65;;;;;;;19.56;41.28;99190.13;4955583;29;20061;-80
2021/12/08 05:43:45;;;;;;;49.05;46.65;;;;;;;19.55;41.22;99197.53;4955357;28;20035;-79
2021/12/08 05:46:13;;;;;;;47.45;45.15;;;;;;;19.54;41.17;99195.94;4955676;29;20030;-80
2021/12/08 05:48:39;;;;;;;49.53;47.00;;;;;;;19.54;41.17;99206.09;4954187;29;20065;-78
2021/12/08 05:51:12;;;;;;;49.00;46.70;;;;;;;19.54;41.37;99211.59;4953851;28;20480;-79
2021/12/08 05:53:40;;;;;;;50.30;47.92;;;;;;;19.52;41.41;99211.91;4954762;29;20027;-80
2021/12/08 05:56:06;;;;;;;49.50;47.10;;;;;;;19.52;41.16;99209.16;4918123;28;1097887;-79
2021/12/08 05:58:32;;;;;;;47.95;45.75;;;;;;;19.52;41.24;99220.13;4954889;29;20043;-79
2021/12/08 06:01:28;;;;;;;48.45;46.17;;;;;;;19.52;41.31;99213.84;4956324;29;20039;-79
2021/12/08 06:03:54;;;;;;;47.35;45.05;;;;;;;19.51;41.09;99231.44;4951469;29;20101;-79
2021/12/08 06:06:22;;;;;;;47.53;45.22;;;;;;;19.49;41.44;99225.50;4956240;29;20038;-79
2021/12/08 06:08:48;;;;;;;47.33;45.03;;;;;;;19.50;40.95;99222.41;4955342;29;20122;-80
2021/12/08 06:11:14;;;;;;;46.85;44.53;;;;;;;19.50;41.29;99221.59;4954612;29;20044;-79
2021/12/08 06:13:42;;;;;;;47.80;45.53;;;;;;;19.49;41.13;99233.72;4955995;29;20053;-80
2021/12/08 06:16:10;;;;;;;47.00;44.80;;;;;;;19.48;41.23;99229.34;4956163;29;20031;-79
2021/12/08 06:18:39;;;;;;;47.33;45.03;;;;;;;19.48;41.26;99237.56;4938845;29;20054;-80
2021/12/08 06:21:05;;;;;;;;;;;;;;;19.45;41.31;99242.63;4956453;29;20063;-80
2021/12/08 06:23:32;;;;;;;45.85;43.75;;;;;;;19.45;41.26;99237.13;4938510;29;19922;-80
2021/12/08 06:25:58;;;;;;;47.85;45.55;;;;;;;19.45;41.22;99247.25;4938369;29;20031;-80
2021/12/08 06:28:24;;;;;;;49.03;46.72;;;;;;;19.44;41.20;99251.16;4938736;29;20125;-79
2021/12/08 06:30:51;;;;;;;49.22;46.83;;;;;;;19.44;41.13;99248.41;4955158;29;20067;-80
2021/12/08 06:33:20;;;;;;;48.10;45.78;;;;;;;19.42;41.15;99246.00;4955873;28;20039;-80
2021/12/08 06:35:55;;;;;;;49.90;47.30;;;;;;;19.43;41.14;99255.03;4955524;29;20090;-81
2021/12/08 06:38:21;;;;;;;48.67;46.38;;;;;;;19.42;41.22;99240.53;4955346;29;20032;-79
2021/12/08 06:40:55;;;;;;;48.65;46.25;;;;;;;19.41;41.30;99255.38;4938565;29;20041;-79
2021/12/08 06:43:25;;;;;;;46.53;44.13;;;;;;;19.41;41.17;99252.63;4955489;29;20042;-78
2021/12/08 06:45:56;;;;;;;49.22;46.80;;;;;;;19.42;40.94;99267.91;4938959;29;20058;-79
2021/12/08 06:48:26;;;;;;;47.22;45.03;;;;;;;19.40;41.16;99264.72;4938525;29;20531;-78
2021/12/08 06:50:56;;;;;;;49.75;46.90;;;;;;;19.40;41.41;99253.78;4955372;29;20054;-78
2021/12/08 06:53:23;;;;;;;52.05;48.17;;;;;;;19.40;41.86;99251.03;4955604;29;20487;-82
2021/12/08 06:55:57;;;;;;;62.08;54.65;;;;;;;19.41;42.22;99255.38;4937384;29;20063;-84
2021/12/08 06:58:27;;;;;;;57.55;52.05;;;;;;;19.42;42.22;99265.16;4955951;29;20031;-81
2021/12/08 07:01:09;;;;;;;56.88;51.00;;;;;;;19.42;42.33;99267.13;4954131;29;20028;-84
2021/12/08 07:09:18;;;;;;;52.65;48.17;;;;;;;19.42;41.93;99284.34;4955227;29;20460;-84
2021/12/08 07:11:43;;;;;;;52.47;48.30;;;;;;;19.42;42.02;99289.03;4938412;29;20035;-83
2021/12/08 07:14:13;;;;;;;52.83;48.97;;;;;;;19.43;41.98;99290.63;4954024;29;20483;-83
2021/12/08 07:16:43;;;;;;;51.85;48.42;;;;;;;19.42;42.05;99294.50;4939265;29;20035;-83
2021/12/08 07:19:34;;;;;;;51.35;47.75;;;;;;;19.41;42.02;99304.66;4955541;29;20042;-82
2021/12/08 07:22:04;;;;;;;50.38;46.55;;;;;;;19.41;41.97;99310.13;4954137;29;20094;-83
2021/12/08 07:24:35;;;;;;;50.47;46.85;;;;;;;19.40;42.06;99324.97;4953931;29;20037;-82
2021/12/08 07:27:08;;;;;;;51.97;48.30;;;;;;;19.41;41.87;99331.25;4938194;29;20031;-84
2021/12/08 07:29:39;;;;;;;50.90;47.78;;;;;;;19.41;41.86;99326.56;4954244;29;20027;-84
2021/12/08 07:32:12;;;;;;;48.85;45.88;;;;;;;19.40;41.84;99329.63;4955129;29;20023;-85
2021/12/08 07:34:38;;;;;;;48.63;45.75;;;;;;;19.38;41.89;99327.25;4955633;29;20464;-87
2021/12/08 07:37:12;;;;;;;53.45;50.38;;;;;;;19.38;41.51;99329.19;4954030;29;20476;-81
2021/12/08 07:39:44;;;;;;;48.45;45.20;;;;;;;19.37;42.02;99344.78;4955362;29;20436;-81
2021/12/08 07:42:37;;;;;;;46.75;44.05;;;;;;;19.38;42.44;99351.88;4955042;29;20452;-86
2021/12/08 07:45:08;;;;;;;49.63;46.65;;;;;;;19.40;42.79;99337.84;4948050;28;20039;-83
2021/12/08 07:47:34;;;;;;;48.33;44.75;;;;;;;19.41;43.04;99348.47;4955621;29;20039;-86
2021/12/08 07:50:09;;;;;;;48.33;45.40;;;;;;;19.43;43.19;99348.94;4953657;29;20551;-89
2021/12/08 07:52:40;;;;;;;47.35;44.55;;;;;;;19.45;43.43;99357.63;4938231;29;20027;-86
2021/12/08 07:55:12;;;;;;;49.70;46.63;;;;;;;19.46;43.44;99358.41;4955636;29;20051;-91
2021/12/08 07:57:37;;;;;;;48.67;45.53;;;;;;;19.49;43.77;99352.25;4954781;29;20461;-87
2021/12/08 08:00:14;;;;;;;48.85;46.20;;;;;;;19.51;43.59;99351.94;4955323;29;20078;-90
2021/12/08 08:02:40;;;;;;;47.45;44.13;;;;;;;19.51;43.65;99339.03;4937998;29;20519;-85
2021/12/08 08:05:08;;;;;;;48.38;45.25;;;;;;;19.52;43.30;99328.88;4954308;28;20043;-85
2021/12/08 08:07:35;;;;;;;46.72;43.47;;;;;;;19.52;42.95;99337.88;4958019;29;20038;-91
2021/12/08 08:10:02;;;;;;;48.55;45.53;;;;;;;19.53;42.69;99339.50;4958437;29;20031;-89
2021/12/08 08:12:32;;;;;;;47.78;45.28;;;;;;;19.53;42.35;99342.25;4941400;29;20114;-78
2021/12/08 08:15:00;;;;;;;50.65;47.20;;;;;;;19.52;42.41;99343.38;4958252;29;20392;-90
2021/12/08 08:17:35;;;;;;;48.70;45.75;;;;;;;19.54;42.01;99348.53;4958971;28;20031;-84
2021/12/08 08:20:06;;;;;;;48.17;45.33;;;;;;;19.56;42.04;99357.22;4956640;29;20383;-83
2021/12/08 08:22:32;;;;;;;47.03;44.50;;;;;;;19.57;41.68;99351.38;4957888;29;20105;-88
2021/12/08 08:25:00;;;;;;;49.15;46.60;;;;;;;19.59;41.79;99348.31;4956379;29;20031;-89
2021/12/08 08:27:27;;;;;;;46.13;43.83;;;;;;;19.61;41.63;99348.78;4956240;28;20046;-81
2021/12/08 08:29:54;;;;;;;46.88;44.38;;;;;;;19.63;41.37;99349.22;4957169;28;20039;-84
2021/12/08 08:32:27;;;;;;;49.42;46.75;;;;;;;19.65;41.41;99353.25;4957377;29;20499;-84
2021/12/08 08:34:59;;;;;;;49.13;46.38;;;;;;;19.68;41.39;99365.50;4957503;29;20045;-83
2021/12/08 08:37:24;;;;;;;48.17;45.78;;;;;;;19.70;41.11;99367.88;4956236;29;20118;-80
2021/12/08 08:39:55;;;;;;;49.33;46.47;;;;;;;19.72;40.99;99368.34;4957313;29;20118;-85
2021/12/08 08:42:31;;;;;;;49.30;46.53;;;;;;;19.74;40.84;99353.19;4957731;29;20031;-83
2021/12/08 08:45:06;;;;;;;47.70;45.00;;;;;;;19.76;40.77;99356.41;4956449;28;20031;-86
2021/12/08 08:47:40;;;;;;;48.47;45.75;;;;;;;19.79;40.84;99352.97;4958563;29;20460;-90
2021/12/08 08:50:09;;;;;;;50.30;47.47;;;;;;;19.82;40.75;99360.50;4956915;29;20090;-86
2021/12/08 08:52:43;;;;;;;48.70;46.08;;;;;;;19.83;40.80;99353.91;4957235;29;20027;-82
2021/12/08 08:55:32;;;;;;;49.30;46.80;;;;;;;19.87;40.28;99348.53;4956529;28;20495;-85
2021/12/08 08:58:00;;;;;;;48.20;45.72;;;;;;;19.88;40.43;99361.91;4939741;29;20034;-88
2021/12/08 09:00:25;;;;;;;49.97;47.42;;;;;;;19.92;40.28;99355.75;4939443;29;20154;-81
2021/12/08 09:02:53;;;;;;;48.72;46.22;;;;;;;19.95;40.80;99358.59;4956359;29;20089;-84
2021/12/08 09:05:31;;;;;;;50.90;48.20;;;;;;;20.00;40.81;99368.53;4955457;29;20063;-80
2021/12/08 09:07:58;;;;;;;50.17;47.60;;;;;;;20.03;40.85;99359.63;4956893;29;20031;-81
2021/12/08 09:10:30;;;;;;;50.67;48.13;;;;;;;20.09;41.26;99363.78;4939442;29;20039;-83
2021/12/08 09:13:07;;;;;;;52.08;49.38;;;;;;;20.14;41.24;99365.50;4956433;29;20033;-79
2021/12/08 09:15:37;;;;;;;51.42;48.92;;;;;;;20.18;41.40;99367.19;4955279;29;20090;-78
2021/12/08 09:18:12;;;;;;;54.53;51.63;;;;;;;20.23;41.50;99371.66;4955944;28;20035;-84
2021/12/08 09:20:54;;;;;;;51.35;48.58;;;;;;;20.28;41.79;99374.97;4939244;29;20118;-84
2021/12/08 09:23:29;;;;;;;53.75;50.85;;;;;;;20.34;41.57;99372.03;4939586;29;20390;-80
2021/12/08 09:25:59;;;;;;;54.88;52.08;;;;;;;20.37;41.67;99379.59;4956403;29;20034;-83
2021/12/08 09:28:30;;;;;;;55.15;52.08;;;;;;;20.42;41.75;99382.91;4956306;29;20064;-83
2021/12/08 09:31:07;;;;;;;52.88;50.28;;;;;;;20.44;41.94;99372.38;4957855;29;20031;-93
2021/12/08 09:33:39;;;;;;;52.55;49.95;;;;;;;20.48;41.75;99381.50;4955816;29;20081;-82
2021/12/08 09:36:20;;;;;;;52.90;50.13;;;;;;;20.52;41.93;99379.69;4955961;29;20038;-84
2021/12/08 09:38:50;;;;;;;53.90;50.90;;;;;;;20.55;42.02;99377.44;4956125;29;20514;-81
2021/12/08 09:41:26;;;;;;;55.28;52.40;;;;;;;20.58;41.74;99374.81;4956322;29;20449;-83
2021/12/08 09:44:03;;;;;;;51.33;48.65;;;;;;;20.61;42.12;99373.31;4956518;29;20066;-87
2021/12/08 09:46:39;;;;;;;53.75;50.90;;;;;;;20.65;41.88;99372.28;4938992;29;20035;-78
2021/12/08 09:49:07;;;;;;;54.45;51.88;;;;;;;20.69;41.69;99369.69;4954863;29;20094;-79
2021/12/08 09:51:34;;;;;;;54.15;51.50;;;;;;;20.72;41.81;99363.50;4954370;28;20043;-85
2021/12/08 09:53:59;;;;;;;54.25;51.65;;;;;;;20.74;41.96;99381.22;4938841;29;20437;-93
2021/12/08 09:56:26;;;;;;;54.33;51.63;;;;;;;20.77;42.02;99382.47;4942580;29;20145;-94
2021/12/08 09:58:53;;;;;;;53.83;51.22;;;;;;;20.79;42.27;99390.34;4957205;29;20085;-84
2021/12/08 10:01:21;;;;;;;54.72;51.95;;;;;;;20.81;41.83;99371.59;4955855;29;20035;-84
2021/12/08 10:03:50;;;;;;;54.83;52.13;;;;;;;20.82;42.19;99365.78;4939202;29;20035;-89
2021/12/08 10:06:16;;;;;;;58.42;55.42;;;;;;;20.85;41.98;99370.56;4954791;29;20096;-83
2021/12/08 10:08:43;;;;;;;54.90;52.28;;;;;;;20.88;41.91;99366.34;4954293;29;20039;-84
2021/12/08 10:11:10;;;;;;;58.17;55.38;;;;;;;20.89;41.98;99355.03;4955474;29;20031;-85
2021/12/08 10:13:35;;;;;;;57.05;54.25;;;;;;;20.91;41.84;99363.69;4955148;29;20059;-82
2021/12/08 10:16:01;;;;;;;55.28;52.58;;;;;;;20.93;42.10;99364.16;4955361;29;20498;-84
2021/12/08 10:18:26;;;;;;;58.58;55.47;;;;;;;20.94;41.94;99370.44;4938321;29;20368;-81
2021/12/08 10:20:55;;;;;;;56.08;53.35;;;;;;;20.96;41.75;99365.41;4955332;28;20031;-84
2021/12/08 10:23:32;;;;;;;58.58;55.72;;;;;;;20.99;41.75;99366.66;4955464;29;20160;-90
2021/12/08 10:25:57;;;;;;;56.78;54.08;;;;;;;21.00;41.58;99360.81;4954271;29;20106;-84
2021/12/08 10:29:03;;;;;;;59.10;56.00;;;;;;;21.02;41.85;99363.25;4954234;28;20034;-90
2021/12/08 10:31:39;;;;;;;57.15;54.25;;;;;;;21.02;41.86;99366.78;4951890;28;20050;-86
2021/12/08 10:36:50;;;;;;;58.45;55.55;;;;;;;21.05;42.04;99359.78;4955278;29;20074;-80
2021/12/08 10:39:22;;;;;;;58.22;55.03;;;;;;;21.06;41.83;99358.63;4955314;29;20110;-79
2021/12/08 10:41:50;;;;;;;58.60;55.70;;;;;;;21.07;41.85;99352.00;4955269;29;20031;-82
2021/12/08 10:44:20;;;;;;;60.67;57.67;;;;;;;21.08;41.62;99354.41;4953766;29;20204;-81
2021/12/08 10:46:46;;;;;;;57.70;54.70;;;;;;;21.08;41.78;99357.13;4955338;29;20030;-82
2021/12/08 10:49:23;;;;;;;58.75;55.90;;;;;;;21.09;41.60;99356.00;4937791;29;20150;-82
2021/12/08 10:54:35;;;;;;;59.25;56.45;;;;;;;21.12;41.54;99357.25;4956585;29;20066;-92
2021/12/08 10:57:03;;;;;;;58.97;55.75;;;;;;;21.11;41.51;99353.69;4954078;29;20059;-80
2021/12/08 11:00:05;;;;;;;59.15;56.25;;;;;;;21.12;41.76;99360.81;4955250;29;20023;-83
2021/12/08 11:02:55;;;;;;;55.72;53.03;;;;;;;21.13;41.97;99370.63;4938337;29;20031;-84
2021/12/08 11:05:24;;;;;;;59.22;56.40;;;;;;;21.14;41.70;99387.91;4953616;29;20090;-84
2021/12/08 11:08:02;;;;;;;57.10;54.40;;;;;;;21.15;41.69;99384.03;4953654;28;20086;-82
2021/12/08 11:10:28;;;;;;;60.28;57.28;;;;;;;21.14;41.57;99380.47;4954700;28;20102;-79
2021/12/08 11:12:56;;;;;;;60.13;57.22;;;;;;;21.16;41.38;99382.84;4953560;29;20067;-87
2021/12/08 11:15:24;;;;;;;64.15;61.08;;;;;;;21.16;41.80;99382.84;4956779;28;20118;-96
2021/12/08 11:18:11;;;;;;;62.80;59.90;;;;;;;21.18;41.44;99391.56;4956468;28;20035;-91
2021/12/08 11:20:46;;;;;;;62.50;59.47;;;;;;;21.15;41.82;99384.81;4954039;29;20090;-82
2021/12/08 11:23:15;;;;;;;63.95;60.83;;;;;;;21.18;41.29;99381.38;4953419;29;20038;-83
2021/12/08 11:25:46;;;;;;;63.25;60.03;;;;;;;21.19;41.63;99384.91;4954624;28;20033;-85
2021/12/08 11:28:22;;;;;;;62.22;59.33;;;;;;;21.18;41.69;99378.63;4954686;29;20475;-86
2021/12/08 11:30:49;;;;;;;60.53;57.63;;;;;;;21.20;41.54;99380.25;4954208;29;20031;-85
2021/12/08 11:33:19;;;;;;;61.65;58.70;;;;;;;21.21;41.66;99377.13;4937961;29;20023;-88
2021/12/08 11:35:46;;;;;;;64.32;61.28;;;;;;;21.21;41.58;99388.13;4953309;29;20035;-85
2021/12/08 11:38:12;;;;;;;62.55;59.45;;;;;;;21.21;41.48;99393.59;4953183;29;20070;-84
2021/12/08 11:40:38;;;;;;;63.55;60.35;;;;;;;21.21;41.33;99396.34;4954932;28;20046;-83
2021/12/08 11:43:13;;;;;;;64.68;61.55;;;;;;;21.19;40.46;99401.38;4958051;29;20043;-82
2021/12/08 11:45:40;;;;;;;63.75;60.85;;;;;;;21.16;39.96;99404.81;4956959;29;20126;-83
2021/12/08 11:48:26;;;;;;;65.25;62.05;;;;;;;21.12;39.40;99403.94;4956788;29;20120;-83
2021/12/08 11:51:09;;;;;;;63.30;60.30;;;;;;;21.09;39.15;99421.06;4956943;29;20035;-82
2021/12/08 11:53:37;;;;;;;61.53;58.72;;;;;;;21.04;39.04;99416.66;4957419;29;20470;-84
2021/12/08 11:56:03;;;;;;;62.75;59.70;;;;;;;21.01;38.91;99417.31;4956494;28;20059;-85
2021/12/08 11:58:29;;;;;;;63.90;60.80;;;;;;;20.99;39.46;99421.56;4958161;29;20468;-84
2021/12/08 12:00:55;;;;;;;61.80;58.60;;;;;;;20.95;39.01;99422.25;4957379;28;20039;-83
2021/12/08 12:03:20;;;;;;;65.18;61.88;;;;;;;20.93;39.33;99426.47;4940627;29;20035;-83
2021/12/08 12:05:48;;;;;;;61.17;58.17;;;;;;;20.90;38.90;99438.16;4956631;29;20043;-84
2021/12/08 12:08:16;;;;;;;62.80;59.70;;;;;;;20.87;39.25;99436.91;4956990;29;20066;-84
2021/12/08 12:10:44;;;;;;;;;;;;;;;20.82;38.95;99450.84;4941022;29;20189;-84
2021/12/08 12:13:10;;;;;;;59.95;57.03;;;;;;;20.80;39.11;99444.91;4940426;29;19917;-85
2021/12/08 12:15:40;;;;;;;60.28;57.30;;;;;;;20.79;39.05;99434.25;4940689;29;20054;-85
2021/12/08 12:18:06;;;;;;;61.88;58.78;;;;;;;20.78;38.86;99455.41;4956293;29;20392;-83
2021/12/08 12:20:39;;;;;;;63.38;60.15;;;;;;;20.77;38.88;99470.28;4956474;28;20030;-80
2021/12/08 12:23:25;;;;;;;59.05;56.25;;;;;;;20.77;38.90;99486.75;4957556;29;20039;-83
2021/12/08 12:26:41;;;;;;;58.95;56.13;;;;;;;20.75;38.91;99494.53;4957616;29;20027;-82